Cmb Ariane — VRIT7 — position and weather

sailwx.info

Track history (hours):
 
Tides and Currents Weather Stations Pressure Air Temp Water Temp Dewpoint Dewpoint Depression Visibility Wind Speed Wind Dir Waves Ship Positions

Cmb Ariane

Last reported at 2016-May-03 14:32 UTC. Time now 2016-May-03 18:18 UTC.
Position N 35°58' W 005°36'.

Length 180 m; draft 6.6 m.

Type: Cargo ship. MMSI: 477229600.

Date/timePositionNaut miles runAvg speedWind from/ knotsBaromVisibWave heightAir tempDewpointWater temp
2016-May-03 14:32N 35°58' W 005°36'10 9.9
2016-May-03 13:33N 36°01' W 005°25'10 9.8
2016-May-03 12:34N 36°04' W 005°13'6 0.2
2016-May-01 21:34N 36°05' W 005°20'2 1.0
2016-May-01 19:19N 36°07' W 005°22'0 0.0
2016-May-01 17:28N 36°07' W 005°22'1 0.5
2016-May-01 16:06N 36°07' W 005°22'3 4.7
2016-May-01 15:33N 36°05' W 005°20'4 4.0
2016-May-01 14:33N 36°05' W 005°15'3 2.5
2016-May-01 13:33N 36°05' W 005°12'  
2016-Apr-24 12:27N 37°32' W 000°60'22411.2
2016-Apr-23 16:26N 35°59' W 005°14'1314.7
2016-Apr-23 15:33N 35°56' W 005°30'  
Track history (hours):
 
Tides and Currents Weather Stations Pressure Air Temp Water Temp Dewpoint Dewpoint Depression Visibility Wind Speed Wind Dir Waves Ship Positions

Cmb Ariane

Last reported at 2016-May-03 14:32 UTC. Time now 2016-May-03 18:18 UTC.
Position N 35°58' W 005°36'.

Length 180 m; draft 6.6 m.

Type: Cargo ship. MMSI: 477229600.

Date/timePositionNaut miles runAvg speedWind from/ knotsBaromVisibWave heightAir tempDewpointWater temp
2016-May-03 14:32N 35°58' W 005°36'10 9.9
2016-May-03 13:33N 36°01' W 005°25'10 9.8
2016-May-03 12:34N 36°04' W 005°13'6 0.2
2016-May-01 21:34N 36°05' W 005°20'2 1.0
2016-May-01 19:19N 36°07' W 005°22'0 0.0
2016-May-01 17:28N 36°07' W 005°22'1 0.5
2016-May-01 16:06N 36°07' W 005°22'3 4.7
2016-May-01 15:33N 36°05' W 005°20'4 4.0
2016-May-01 14:33N 36°05' W 005°15'3 2.5
2016-May-01 13:33N 36°05' W 005°12'  
2016-Apr-24 12:27N 37°32' W 000°60'22411.2
2016-Apr-23 16:26N 35°59' W 005°14'1314.7
2016-Apr-23 15:33N 35°56' W 005°30'  

Dump ship's entire track history